Time;durP1;ratioP1;P1;durP2;ratioP2;P2;SDS_P1;SDS_P2;PMS_P1;PMS_P2;Temp;Humidity;BMP_temperature;BMP_pressure;BME280_temperature;BME280_humidity;BME280_pressure;Samples;Min_cycle;Max_cycle;Signal;HPM_P1;HPM_P2
2023/01/31 00:01:37;;;;;;;14.50;3.00;;;4.10;99.90;;;;;;5063188;28;20537;-69
2023/01/31 00:04:06;;;;;;;17.43;3.47;;;4.10;99.90;;;;;;5063193;28;20451;-70
2023/01/31 00:06:37;;;;;;;8.47;3.00;;;4.10;99.90;;;;;;5060473;28;20479;-68
2023/01/31 00:09:05;;;;;;;14.00;3.70;;;4.10;99.90;;;;;;5059986;28;20443;-68
2023/01/31 00:11:34;;;;;;;14.27;4.23;;;4.10;99.90;;;;;;5061769;28;20462;-67
2023/01/31 00:14:03;;;;;;;10.87;3.33;;;4.10;99.90;;;;;;5065481;28;20475;-67
2023/01/31 00:16:30;;;;;;;15.20;2.77;;;4.10;99.90;;;;;;5064341;28;20446;-69
2023/01/31 00:18:57;;;;;;;12.03;3.10;;;4.10;99.90;;;;;;5063546;28;20466;-68
2023/01/31 00:21:26;;;;;;;18.37;3.40;;;4.10;99.90;;;;;;5064347;28;20467;-69
2023/01/31 00:23:54;;;;;;;16.60;3.33;;;4.00;99.90;;;;;;5063807;28;20455;-68
2023/01/31 00:26:23;;;;;;;12.07;3.77;;;4.00;99.90;;;;;;5062117;28;20798;-67
2023/01/31 00:28:53;;;;;;;12.80;3.13;;;4.10;99.90;;;;;;5062290;28;21068;-68
2023/01/31 00:31:21;;;;;;;13.87;2.63;;;4.00;99.90;;;;;;5064071;28;20469;-67
2023/01/31 00:33:49;;;;;;;10.10;2.90;;;4.00;99.90;;;;;;5064025;28;20475;-67
2023/01/31 00:36:17;;;;;;;13.73;2.70;;;4.00;99.90;;;;;;5062584;28;20455;-69
2023/01/31 00:38:45;;;;;;;28.77;3.80;;;4.00;99.90;;;;;;5062191;28;20451;-70
2023/01/31 00:41:12;;;;;;;17.77;3.70;;;4.00;99.90;;;;;;5062506;28;20458;-70
2023/01/31 00:43:39;;;;;;;6.60;2.90;;;4.00;99.90;;;;;;5061459;28;20546;-69
2023/01/31 00:46:07;;;;;;;7.80;2.80;;;3.90;99.90;;;;;;5061206;28;20455;-69
2023/01/31 00:48:34;;;;;;;10.80;3.10;;;4.00;99.90;;;;;;5062644;28;20454;-68
2023/01/31 00:51:01;;;;;;;16.30;2.40;;;4.00;99.90;;;;;;5062665;28;20883;-69
2023/01/31 00:53:27;;;;;;;17.07;3.83;;;4.00;99.90;;;;;;5062620;28;20534;-67
2023/01/31 00:55:57;;;;;;;12.97;3.00;;;4.00;99.90;;;;;;5063073;28;20455;-69
2023/01/31 00:58:24;;;;;;;16.00;5.40;;;4.00;99.90;;;;;;5063422;28;20458;-69
2023/01/31 01:00:51;;;;;;;9.50;2.63;;;4.10;99.90;;;;;;5062516;28;20451;-69
2023/01/31 01:03:19;;;;;;;12.50;2.70;;;4.10;99.90;;;;;;5063697;28;20851;-70
2023/01/31 01:05:46;;;;;;;18.30;2.80;;;4.20;99.90;;;;;;5061177;28;20519;-67
2023/01/31 01:08:13;;;;;;;17.00;3.37;;;4.20;99.90;;;;;;5061735;28;20469;-71
2023/01/31 01:10:40;;;;;;;17.17;3.63;;;4.20;99.90;;;;;;5062804;28;20456;-68
2023/01/31 01:13:06;;;;;;;13.93;2.97;;;4.20;99.90;;;;;;5063756;28;20554;-68
2023/01/31 01:15:37;;;;;;;9.50;2.60;;;4.20;99.90;;;;;;5062168;28;20483;-68
2023/01/31 01:18:04;;;;;;;13.43;2.83;;;4.20;99.90;;;;;;5062809;28;20443;-70
2023/01/31 01:20:34;;;;;;;10.97;2.37;;;4.20;99.90;;;;;;5063269;28;20455;-70
2023/01/31 01:23:00;;;;;;;8.43;2.30;;;4.30;99.90;;;;;;5064036;28;20522;-68
2023/01/31 01:25:27;;;;;;;11.17;2.50;;;4.30;99.90;;;;;;5063866;28;20943;-68
2023/01/31 01:27:54;;;;;;;13.37;2.87;;;4.30;99.90;;;;;;5063196;28;20524;-68
2023/01/31 01:30:21;;;;;;;15.63;2.57;;;4.30;99.90;;;;;;5062783;28;20541;-68
2023/01/31 01:32:48;;;;;;;14.97;2.90;;;4.30;99.90;;;;;;5062902;28;20547;-68
2023/01/31 01:35:15;;;;;;;10.10;2.67;;;4.30;99.90;;;;;;5058199;28;20812;-67
2023/01/31 01:37:43;;;;;;;10.30;2.33;;;4.30;99.90;;;;;;5057418;28;20490;-68
2023/01/31 01:40:11;;;;;;;9.43;2.60;;;4.30;99.90;;;;;;5058961;28;20466;-69
2023/01/31 01:42:38;;;;;;;6.03;2.20;;;4.30;99.90;;;;;;5059974;28;20530;-69
2023/01/31 01:45:14;;;;;;;13.73;2.30;;;4.30;99.90;;;;;;5058123;28;20470;-68
2023/01/31 01:47:46;;;;;;;12.97;3.20;;;4.30;99.90;;;;;;5059752;28;20439;-69
2023/01/31 01:50:17;;;;;;;10.03;2.40;;;4.30;99.90;;;;;;5059690;28;20439;-70
2023/01/31 01:52:48;;;;;;;16.70;2.70;;;4.40;99.90;;;;;;5060699;28;20823;-69
2023/01/31 01:55:22;;;;;;;12.67;2.00;;;4.40;99.90;;;;;;5059575;28;20474;-69
2023/01/31 01:57:56;;;;;;;9.83;2.80;;;4.40;99.90;;;;;;5058484;28;20841;-69
2023/01/31 02:00:24;;;;;;;4.90;2.27;;;4.40;99.90;;;;;;5059464;28;20461;-68
2023/01/31 02:02:55;;;;;;;8.20;2.10;;;4.40;99.90;;;;;;5060507;28;20883;-69
2023/01/31 02:05:28;;;;;;;11.57;1.83;;;4.40;99.90;;;;;;5060722;28;20507;-68
2023/01/31 02:07:56;;;;;;;14.80;3.13;;;4.40;99.90;;;;;;5060274;28;20440;-69
2023/01/31 02:10:27;;;;;;;18.63;3.53;;;4.30;99.90;;;;;;5063188;28;20538;-67
2023/01/31 02:12:55;;;;;;;6.20;2.03;;;4.40;99.90;;;;;;5063499;28;20439;-68
2023/01/31 02:15:22;;;;;;;6.03;2.00;;;4.30;99.90;;;;;;5063237;28;20570;-68
2023/01/31 02:17:49;;;;;;;14.13;3.93;;;4.30;99.90;;;;;;5065372;28;20514;-69
2023/01/31 02:20:29;;;;;;;16.93;2.80;;;4.30;99.90;;;;;;5065158;28;20459;-68
2023/01/31 02:23:19;;;;;;;7.67;2.40;;;4.30;99.90;;;;;;5062110;28;20443;-69
2023/01/31 02:26:29;;;;;;;11.17;2.83;;;4.30;99.90;;;;;;5062992;28;20478;-68
2023/01/31 02:29:23;;;;;;;10.63;2.20;;;4.30;99.90;;;;;;5062947;28;20445;-69
2023/01/31 02:32:03;;;;;;;7.63;2.03;;;4.30;99.90;;;;;;5064460;28;20453;-68
2023/01/31 02:34:39;;;;;;;9.80;2.03;;;4.30;99.90;;;;;;5062564;28;20463;-69
2023/01/31 02:37:18;;;;;;;9.03;2.20;;;4.30;99.90;;;;;;5061148;28;20445;-69
2023/01/31 02:39:55;;;;;;;13.70;1.83;;;4.30;99.90;;;;;;5065651;28;20514;-68
2023/01/31 02:42:33;;;;;;;6.93;2.40;;;4.30;99.90;;;;;;5064512;28;20439;-67
2023/01/31 02:45:06;;;;;;;11.00;3.47;;;4.40;99.90;;;;;;5064745;28;20538;-68
2023/01/31 02:47:43;;;;;;;13.20;2.80;;;4.30;99.90;;;;;;5064701;28;20443;-69
2023/01/31 02:50:19;;;;;;;14.37;2.47;;;4.30;99.90;;;;;;5063115;28;20443;-69
2023/01/31 02:52:49;;;;;;;9.03;2.17;;;4.30;99.90;;;;;;5062387;28;20525;-69
2023/01/31 02:58:09;;;;;;;8.83;2.40;;;4.20;99.90;;;;;;5062866;28;20431;-68
2023/01/31 03:00:39;;;;;;;13.63;2.93;;;4.20;99.90;;;;;;5062416;28;20455;-67
2023/01/31 03:03:07;;;;;;;12.43;2.63;;;4.10;99.90;;;;;;5062711;28;20542;-68
2023/01/31 03:05:36;;;;;;;20.37;2.77;;;4.10;99.90;;;;;;5062257;28;20451;-68
2023/01/31 03:08:05;;;;;;;10.07;3.00;;;4.00;99.90;;;;;;5063554;28;20542;-69
2023/01/31 03:10:56;;;;;;;9.77;2.63;;;4.00;99.90;;;;;;5062039;28;20558;-68
2023/01/31 03:13:36;;;;;;;10.97;2.00;;;3.90;99.90;;;;;;5063700;28;20534;-68
2023/01/31 03:19:03;;;;;;;9.77;2.50;;;3.80;99.90;;;;;;5060392;28;20438;-68
2023/01/31 03:21:37;;;;;;;8.83;1.83;;;3.70;99.90;;;;;;5060222;28;20475;-68
2023/01/31 03:24:06;;;;;;;11.70;2.57;;;3.70;99.90;;;;;;5063178;28;20471;-67
2023/01/31 03:26:34;;;;;;;11.90;2.30;;;3.70;99.90;;;;;;5061889;28;20485;-68
2023/01/31 03:29:03;;;;;;;17.93;2.53;;;3.70;99.90;;;;;;5063062;28;20571;-68
2023/01/31 03:31:35;;;;;;;8.83;2.10;;;3.60;99.90;;;;;;5061786;28;20791;-68
2023/01/31 03:34:05;;;;;;;10.30;2.07;;;3.60;99.90;;;;;;5063538;28;20509;-68
2023/01/31 03:36:40;;;;;;;12.97;2.30;;;3.60;99.90;;;;;;5061899;28;20900;-68
2023/01/31 03:39:15;;;;;;;8.13;1.80;;;3.60;99.90;;;;;;5061568;28;20819;-68
2023/01/31 03:41:54;;;;;;;8.60;1.70;;;3.60;99.90;;;;;;5061468;28;20439;-68
2023/01/31 03:44:30;;;;;;;7.30;2.10;;;3.50;99.90;;;;;;5061629;28;20489;-69
2023/01/31 03:47:01;;;;;;;9.90;2.13;;;3.50;99.90;;;;;;5060279;28;20551;-68
2023/01/31 03:49:31;;;;;;;13.43;2.10;;;3.50;99.90;;;;;;5061726;28;20448;-69
2023/01/31 03:52:04;;;;;;;11.47;2.60;;;3.50;99.90;;;;;;5061502;28;20546;-68
2023/01/31 03:54:37;;;;;;;6.33;2.20;;;3.50;99.90;;;;;;5060512;28;20462;-68
2023/01/31 03:57:12;;;;;;;8.40;1.80;;;3.50;99.90;;;;;;5061290;28;20445;-69
2023/01/31 03:59:42;;;;;;;10.43;2.17;;;3.50;99.90;;;;;;5062191;28;20522;-67
2023/01/31 04:02:12;;;;;;;8.17;2.53;;;3.50;99.90;;;;;;5062412;28;20526;-69
2023/01/31 04:04:43;;;;;;;6.00;2.10;;;3.40;99.90;;;;;;5061445;28;20514;-70
2023/01/31 04:07:12;;;;;;;6.90;2.10;;;3.40;99.90;;;;;;5062131;28;20467;-69
2023/01/31 04:09:39;;;;;;;11.30;2.10;;;3.40;99.90;;;;;;5062994;28;20818;-67
2023/01/31 04:12:07;;;;;;;10.70;2.10;;;3.40;99.90;;;;;;5061962;28;20463;-69
2023/01/31 04:14:33;;;;;;;8.37;2.37;;;3.40;99.90;;;;;;5062348;28;20475;-67
2023/01/31 04:17:00;;;;;;;9.20;2.03;;;3.30;99.90;;;;;;5061451;28;20514;-70
2023/01/31 04:19:27;;;;;;;7.07;1.73;;;3.30;99.90;;;;;;5060946;28;20461;-69
2023/01/31 04:21:54;;;;;;;6.40;1.80;;;3.30;99.90;;;;;;5063143;28;20486;-68
2023/01/31 04:24:23;;;;;;;17.23;3.33;;;3.30;99.90;;;;;;5062836;28;20470;-68
2023/01/31 04:26:50;;;;;;;11.83;2.10;;;3.30;99.90;;;;;;5062055;28;20458;-69
2023/01/31 04:29:16;;;;;;;5.87;2.03;;;3.30;99.90;;;;;;5064182;28;20485;-68
2023/01/31 04:31:43;;;;;;;9.10;2.37;;;3.30;99.90;;;;;;5062081;28;20459;-69
2023/01/31 04:34:10;;;;;;;7.10;2.23;;;3.30;99.90;;;;;;5060700;28;20549;-67
2023/01/31 04:36:37;;;;;;;8.87;2.53;;;3.30;99.90;;;;;;5059929;28;20545;-68
2023/01/31 04:39:04;;;;;;;6.43;2.03;;;3.20;99.90;;;;;;5060223;28;20928;-69
2023/01/31 04:41:32;;;;;;;8.27;2.67;;;3.20;99.90;;;;;;5060685;28;20517;-69
2023/01/31 04:43:59;;;;;;;8.43;2.47;;;3.20;99.90;;;;;;5059748;28;20578;-68
2023/01/31 04:46:26;;;;;;;13.63;3.30;;;3.20;99.90;;;;;;5058765;28;20459;-69
2023/01/31 04:48:53;;;;;;;12.37;3.13;;;3.20;99.90;;;;;;5060021;28;20465;-70
2023/01/31 04:51:19;;;;;;;14.07;2.80;;;3.20;99.90;;;;;;5060812;28;20529;-68
2023/01/31 04:53:46;;;;;;;9.53;2.40;;;3.30;99.90;;;;;;5059724;28;20537;-70
2023/01/31 04:56:13;;;;;;;11.23;2.40;;;3.30;99.90;;;;;;5062127;28;20574;-68
2023/01/31 04:58:42;;;;;;;11.53;2.77;;;3.30;99.90;;;;;;5062800;28;20455;-68
2023/01/31 05:01:09;;;;;;;10.50;2.67;;;3.30;99.90;;;;;;5061085;28;20465;-69
2023/01/31 05:03:36;;;;;;;9.70;2.73;;;3.30;99.90;;;;;;5060763;28;20490;-69
2023/01/31 05:06:03;;;;;;;11.20;2.30;;;3.30;99.90;;;;;;5060636;28;20832;-68
2023/01/31 05:08:30;;;;;;;13.47;2.80;;;3.30;99.90;;;;;;5060450;28;20750;-68
2023/01/31 05:10:58;;;;;;;8.60;2.97;;;3.30;99.90;;;;;;5060928;28;20455;-67
2023/01/31 05:13:25;;;;;;;11.10;2.43;;;3.30;99.90;;;;;;5060651;28;20551;-70
2023/01/31 05:15:53;;;;;;;12.83;2.47;;;3.30;99.90;;;;;;5058844;28;20483;-69
2023/01/31 05:18:20;;;;;;;11.40;2.53;;;3.30;99.90;;;;;;5060396;28;20539;-69
2023/01/31 05:20:48;;;;;;;10.10;2.97;;;3.30;99.90;;;;;;5059771;28;20551;-69
2023/01/31 05:23:16;;;;;;;5.27;2.40;;;3.30;99.90;;;;;;5059362;28;20455;-68
2023/01/31 05:25:43;;;;;;;11.10;2.30;;;3.30;99.90;;;;;;5061242;28;20523;-69
2023/01/31 05:28:10;;;;;;;6.00;2.10;;;3.40;99.90;;;;;;5062288;28;20820;-68
2023/01/31 05:30:37;;;;;;;6.73;1.97;;;3.40;99.90;;;;;;5060499;28;20470;-69
2023/01/31 05:33:05;;;;;;;8.20;2.07;;;3.40;99.90;;;;;;5059261;28;20939;-68
2023/01/31 05:35:32;;;;;;;9.90;2.40;;;3.40;99.90;;;;;;5061626;28;20471;-68
2023/01/31 05:37:59;;;;;;;17.70;3.00;;;3.40;99.90;;;;;;5064105;28;20481;-69
2023/01/31 05:40:26;;;;;;;10.70;2.77;;;3.50;99.90;;;;;;5064150;28;20455;-68
2023/01/31 05:42:58;;;;;;;14.40;3.33;;;3.50;99.90;;;;;;5063122;28;20575;-68
2023/01/31 05:45:25;;;;;;;5.43;2.80;;;3.60;99.90;;;;;;5064726;28;20823;-69
2023/01/31 05:47:52;;;;;;;15.00;3.90;;;3.60;99.90;;;;;;5062674;28;20558;-69
2023/01/31 05:50:21;;;;;;;13.67;3.03;;;3.70;99.90;;;;;;5062031;28;20459;-69
2023/01/31 05:52:52;;;;;;;10.30;3.07;;;3.70;99.90;;;;;;5063045;28;20818;-69
2023/01/31 05:55:19;;;;;;;9.13;3.67;;;3.80;99.90;;;;;;5063275;28;20475;-67
2023/01/31 05:57:46;;;;;;;15.90;3.20;;;3.80;99.90;;;;;;5061979;28;20546;-68
2023/01/31 06:00:15;;;;;;;11.10;3.40;;;3.80;99.90;;;;;;5062118;28;20459;-68
2023/01/31 06:02:42;;;;;;;9.77;2.63;;;3.90;99.90;;;;;;5063398;28;20454;-67
2023/01/31 06:05:10;;;;;;;15.20;2.30;;;3.90;99.90;;;;;;5063643;28;20454;-68
2023/01/31 06:07:38;;;;;;;12.57;2.67;;;4.00;99.90;;;;;;5064114;28;20465;-68
2023/01/31 06:10:07;;;;;;;11.80;2.37;;;4.00;99.90;;;;;;5063196;28;20787;-68
2023/01/31 06:12:34;;;;;;;7.67;2.10;;;4.00;99.90;;;;;;5061641;28;20531;-67
2023/01/31 06:15:01;;;;;;;19.07;2.53;;;4.00;99.90;;;;;;5061783;28;20455;-68
2023/01/31 06:17:28;;;;;;;6.43;2.37;;;4.10;99.90;;;;;;5062854;28;20451;-68
2023/01/31 06:19:55;;;;;;;12.97;2.90;;;4.10;99.90;;;;;;5062851;28;20545;-68
2023/01/31 06:22:22;;;;;;;9.40;2.90;;;4.10;99.90;;;;;;5061458;28;20473;-69
2023/01/31 06:24:50;;;;;;;6.93;2.40;;;4.10;99.90;;;;;;5061367;28;20487;-69
2023/01/31 06:27:17;;;;;;;12.53;2.73;;;4.10;99.90;;;;;;5061450;28;20832;-70
2023/01/31 06:29:44;;;;;;;12.33;2.60;;;4.10;99.90;;;;;;5061046;28;20861;-68
2023/01/31 06:32:10;;;;;;;9.67;3.03;;;4.10;99.90;;;;;;5063661;28;20542;-68
2023/01/31 06:34:37;;;;;;;9.93;2.50;;;4.10;99.90;;;;;;5063745;28;20530;-69
2023/01/31 06:37:04;;;;;;;15.33;3.20;;;4.10;99.90;;;;;;5062414;28;20482;-69
2023/01/31 06:39:31;;;;;;;8.97;2.40;;;4.10;99.90;;;;;;5061733;28;20929;-69
2023/01/31 06:41:59;;;;;;;10.67;2.20;;;4.10;99.90;;;;;;5061675;28;20501;-69
2023/01/31 06:44:26;;;;;;;12.13;2.70;;;4.10;99.90;;;;;;5060549;28;20478;-69
2023/01/31 06:46:53;;;;;;;10.10;3.07;;;4.10;99.90;;;;;;5061278;28;20523;-70
2023/01/31 06:49:19;;;;;;;9.80;2.13;;;4.20;99.90;;;;;;5061496;28;20561;-69
2023/01/31 06:51:46;;;;;;;14.60;3.20;;;4.20;99.90;;;;;;5060571;28;20455;-70
2023/01/31 06:54:13;;;;;;;7.40;1.83;;;4.20;99.90;;;;;;5061563;28;20756;-68
2023/01/31 06:56:40;;;;;;;9.80;2.80;;;4.20;99.90;;;;;;5072119;28;20553;-67
2023/01/31 06:59:08;;;;;;;7.93;2.67;;;4.30;99.90;;;;;;5081392;28;20521;-69
2023/01/31 07:01:35;;;;;;;6.97;2.43;;;4.30;99.90;;;;;;5081224;28;20558;-69
2023/01/31 07:04:02;;;;;;;10.50;2.47;;;4.30;99.90;;;;;;5080812;28;20540;-68
2023/01/31 07:06:29;;;;;;;6.20;2.20;;;4.30;99.90;;;;;;5080623;28;20560;-69
2023/01/31 07:08:55;;;;;;;6.20;2.37;;;4.30;99.90;;;;;;5080605;28;20778;-70
2023/01/31 07:11:22;;;;;;;16.30;3.33;;;4.30;99.90;;;;;;5081087;28;20477;-68
2023/01/31 07:13:49;;;;;;;6.93;2.23;;;4.30;99.90;;;;;;5082150;28;20493;-69
2023/01/31 07:16:18;;;;;;;8.30;2.83;;;4.30;99.90;;;;;;5081170;28;20545;-68
2023/01/31 07:18:45;;;;;;;7.80;3.30;;;4.30;99.90;;;;;;5082930;28;20480;-68
2023/01/31 07:21:12;;;;;;;9.53;2.83;;;4.30;99.90;;;;;;5081394;28;20525;-68
2023/01/31 07:23:39;;;;;;;15.83;2.30;;;4.30;99.90;;;;;;5083092;28;20454;-69
2023/01/31 07:26:06;;;;;;;17.10;2.40;;;4.30;99.90;;;;;;5082186;28;20473;-69
2023/01/31 07:28:33;;;;;;;8.50;2.90;;;4.40;99.90;;;;;;5081752;28;20480;-69
2023/01/31 07:31:09;;;;;;;8.90;2.90;;;4.40;99.90;;;;;;5081541;28;20527;-68
2023/01/31 07:33:38;;;;;;;8.70;2.97;;;4.40;99.90;;;;;;5081817;28;20817;-68
2023/01/31 07:36:06;;;;;;;9.50;2.73;;;4.40;99.90;;;;;;5069834;28;20959;-69
2023/01/31 07:38:34;;;;;;;12.37;3.00;;;4.40;99.90;;;;;;5063641;28;20447;-68
2023/01/31 07:41:03;;;;;;;12.57;2.77;;;4.40;99.90;;;;;;5081983;28;20529;-68
2023/01/31 07:43:31;;;;;;;13.20;3.23;;;4.40;99.90;;;;;;5081383;28;20490;-68
2023/01/31 07:45:58;;;;;;;17.40;3.60;;;4.40;99.90;;;;;;5082079;28;20478;-68
2023/01/31 07:48:25;;;;;;;7.00;2.70;;;4.40;99.90;;;;;;5081210;28;20781;-69
2023/01/31 07:50:59;;;;;;;7.00;2.33;;;4.40;99.90;;;;;;5080133;28;20597;-69
2023/01/31 07:53:28;;;;;;;10.50;3.47;;;4.40;99.90;;;;;;5078378;28;20522;-70
2023/01/31 07:55:55;;;;;;;16.27;3.00;;;4.40;99.90;;;;;;5077525;28;20486;-69
2023/01/31 07:58:22;;;;;;;16.97;3.43;;;4.40;99.90;;;;;;5077037;28;20500;-69
2023/01/31 08:03:33;;;;;;;9.83;2.93;;;4.40;99.90;;;;;;5058126;28;20510;-68
2023/01/31 08:06:02;;;;;;;12.47;2.80;;;4.40;99.90;;;;;;5057277;28;20600;-68
2023/01/31 08:08:29;;;;;;;19.13;4.80;;;4.40;99.90;;;;;;5057803;28;20455;-69
2023/01/31 08:10:56;;;;;;;12.10;3.33;;;4.40;99.90;;;;;;5058271;28;20451;-68
2023/01/31 08:13:25;;;;;;;7.90;3.27;;;4.40;99.90;;;;;;5058688;28;20498;-69
2023/01/31 08:15:52;;;;;;;9.43;3.43;;;4.50;99.90;;;;;;5057925;28;20857;-69
2023/01/31 08:18:19;;;;;;;12.47;2.93;;;4.50;99.90;;;;;;5058791;28;20459;-69
2023/01/31 08:20:46;;;;;;;11.00;3.23;;;4.60;99.90;;;;;;5058751;28;20451;-68
2023/01/31 08:23:14;;;;;;;8.23;2.97;;;4.60;99.90;;;;;;5058825;28;20547;-69
2023/01/31 08:25:41;;;;;;;9.40;2.90;;;4.60;99.90;;;;;;5058677;28;20456;-67
2023/01/31 08:28:08;;;;;;;7.13;2.67;;;4.70;99.90;;;;;;5058235;28;20456;-68
2023/01/31 08:30:39;;;;;;;6.40;2.80;;;4.70;99.90;;;;;;5058908;28;20489;-68
2023/01/31 08:33:06;;;;;;;14.73;3.37;;;4.70;99.90;;;;;;5057369;28;20439;-70
2023/01/31 08:35:33;;;;;;;14.17;3.20;;;4.70;99.90;;;;;;5057414;28;20459;-69
2023/01/31 08:38:00;;;;;;;10.63;3.13;;;4.70;99.90;;;;;;5059217;28;20505;-68
2023/01/31 08:40:28;;;;;;;7.30;3.03;;;4.70;99.90;;;;;;5058690;28;20580;-68
2023/01/31 08:42:55;;;;;;;9.90;3.20;;;4.70;99.90;;;;;;5058489;28;20482;-69
2023/01/31 08:45:22;;;;;;;10.17;2.83;;;4.70;99.90;;;;;;5059559;28;20451;-68
2023/01/31 08:47:53;;;;;;;9.40;3.00;;;4.70;99.90;;;;;;5059688;28;20545;-70
2023/01/31 08:50:20;;;;;;;9.00;3.17;;;4.60;99.90;;;;;;5059844;28;20453;-70
2023/01/31 08:52:47;;;;;;;8.87;3.60;;;4.60;99.90;;;;;;5059145;28;20455;-69
2023/01/31 08:55:14;;;;;;;9.63;3.20;;;4.60;99.90;;;;;;5058738;28;20459;-68
2023/01/31 08:57:44;;;;;;;10.03;2.60;;;4.60;99.90;;;;;;5058745;28;20979;-69
2023/01/31 09:00:12;;;;;;;10.97;3.10;;;4.70;99.90;;;;;;5059375;28;20455;-69
2023/01/31 09:02:39;;;;;;;19.83;3.80;;;4.70;99.90;;;;;;5060107;28;20465;-67
2023/01/31 09:05:07;;;;;;;9.53;3.40;;;4.70;99.90;;;;;;5060591;28;20465;-68
2023/01/31 09:07:34;;;;;;;11.50;3.27;;;4.80;99.90;;;;;;5059023;28;20462;-69
2023/01/31 09:10:01;;;;;;;13.87;3.70;;;4.80;99.90;;;;;;5058925;28;20465;-68
2023/01/31 09:12:28;;;;;;;7.60;3.40;;;4.80;99.90;;;;;;5061492;28;20527;-70
2023/01/31 09:14:56;;;;;;;10.03;2.73;;;4.90;99.90;;;;;;5061993;28;20483;-69
2023/01/31 09:17:23;;;;;;;13.30;2.90;;;4.90;99.90;;;;;;5060955;28;20547;-69
2023/01/31 09:19:50;;;;;;;8.30;2.83;;;4.90;99.90;;;;;;5060034;28;20534;-69
2023/01/31 09:22:16;;;;;;;15.73;3.50;;;4.90;99.90;;;;;;5060009;28;20493;-69
2023/01/31 09:24:44;;;;;;;9.20;2.83;;;4.90;99.90;;;;;;5059475;28;20455;-71
2023/01/31 09:27:11;;;;;;;10.10;2.93;;;4.90;99.90;;;;;;5059316;28;20517;-69
2023/01/31 09:29:38;;;;;;;18.20;3.17;;;4.90;99.90;;;;;;5059355;28;20529;-69
2023/01/31 09:32:07;;;;;;;21.53;3.90;;;4.90;99.90;;;;;;5060776;28;20455;-69
2023/01/31 09:34:34;;;;;;;10.13;2.93;;;5.00;99.90;;;;;;5060860;28;20476;-67
2023/01/31 09:37:00;;;;;;;9.73;2.83;;;5.00;99.90;;;;;;5059440;28;20581;-69
2023/01/31 09:39:27;;;;;;;15.63;3.23;;;5.00;99.90;;;;;;5058463;28;20455;-69
2023/01/31 09:41:58;;;;;;;12.37;3.77;;;5.10;99.90;;;;;;5059326;28;20559;-69
2023/01/31 09:44:27;;;;;;;9.57;3.40;;;5.10;99.90;;;;;;5059253;28;20493;-69
2023/01/31 09:46:57;;;;;;;9.63;3.20;;;5.10;99.90;;;;;;5058831;28;20455;-68
2023/01/31 09:49:32;;;;;;;12.23;2.97;;;5.20;99.90;;;;;;5058952;28;20538;-68
2023/01/31 09:52:02;;;;;;;17.67;3.00;;;5.20;99.90;;;;;;5058580;28;20449;-69
2023/01/31 09:54:33;;;;;;;6.90;3.27;;;5.30;99.90;;;;;;5057242;28;20470;-68
2023/01/31 09:57:07;;;;;;;11.27;3.90;;;5.40;99.90;;;;;;5057282;28;20463;-69
2023/01/31 09:59:45;;;;;;;6.70;2.80;;;5.50;99.90;;;;;;5058536;28;20448;-69
2023/01/31 10:02:29;;;;;;;12.23;3.47;;;5.60;99.90;;;;;;5059218;28;20906;-68
2023/01/31 10:05:14;;;;;;;12.87;3.60;;;5.60;99.90;;;;;;5058941;28;20505;-68
2023/01/31 10:07:49;;;;;;;9.97;3.27;;;5.60;99.90;;;;;;5059334;28;20952;-68
2023/01/31 10:10:29;;;;;;;20.10;3.17;;;5.60;99.90;;;;;;5059137;28;20494;-69
2023/01/31 10:13:00;;;;;;;13.80;2.90;;;5.60;99.90;;;;;;5056793;28;20446;-68
2023/01/31 10:15:33;;;;;;;8.03;3.10;;;5.60;99.90;;;;;;5059292;28;20467;-69
2023/01/31 10:18:03;;;;;;;8.10;3.23;;;5.60;99.90;;;;;;5059120;28;20558;-69
2023/01/31 10:20:38;;;;;;;11.13;3.80;;;5.60;99.90;;;;;;5059372;28;20455;-69
2023/01/31 10:23:11;;;;;;;11.53;3.07;;;5.70;99.90;;;;;;5059429;28;20522;-68
2023/01/31 10:25:46;;;;;;;11.93;3.23;;;5.80;99.90;;;;;;5057630;28;20443;-68
2023/01/31 10:28:17;;;;;;;17.67;4.27;;;5.70;99.90;;;;;;5059075;28;20438;-68
2023/01/31 10:30:49;;;;;;;13.87;4.10;;;5.70;99.90;;;;;;5061606;28;20518;-69
2023/01/31 10:33:24;;;;;;;8.60;2.87;;;5.70;99.90;;;;;;5063985;28;20811;-69
2023/01/31 10:35:54;;;;;;;15.13;3.70;;;5.60;99.90;;;;;;5062217;28;20453;-69
2023/01/31 10:38:26;;;;;;;14.47;4.20;;;5.60;99.90;;;;;;5062510;28;20527;-69
2023/01/31 10:40:58;;;;;;;11.67;3.47;;;5.60;99.90;;;;;;5063272;28;20702;-70
2023/01/31 10:43:36;;;;;;;8.57;2.40;;;5.60;99.90;;;;;;5060536;28;20510;-69
2023/01/31 10:46:10;;;;;;;11.80;3.10;;;5.50;99.90;;;;;;5059837;28;20487;-69
2023/01/31 10:48:37;;;;;;;9.63;2.80;;;5.40;99.90;;;;;;5060780;28;20879;-69
2023/01/31 10:51:19;;;;;;;9.77;3.43;;;5.40;99.90;;;;;;5059182;28;20477;-68
2023/01/31 10:54:02;;;;;;;13.20;3.50;;;5.40;99.90;;;;;;5059422;28;20520;-69
2023/01/31 10:56:33;;;;;;;19.03;4.20;;;5.40;99.90;;;;;;5061296;28;20467;-69
2023/01/31 10:59:02;;;;;;;10.23;2.70;;;5.50;99.90;;;;;;5060740;28;20447;-69
2023/01/31 11:01:29;;;;;;;15.17;4.00;;;5.60;99.90;;;;;;5061992;28;20497;-70
2023/01/31 11:03:57;;;;;;;14.60;3.53;;;5.60;99.90;;;;;;5061489;28;20497;-69
2023/01/31 11:06:26;;;;;;;11.90;4.37;;;5.70;99.90;;;;;;5061476;28;20455;-69
2023/01/31 11:08:57;;;;;;;13.00;4.20;;;5.70;99.90;;;;;;5061580;28;20523;-69
2023/01/31 11:11:26;;;;;;;12.87;3.53;;;5.70;99.90;;;;;;5061304;28;20470;-69
2023/01/31 11:13:58;;;;;;;11.33;4.20;;;5.80;99.90;;;;;;5060137;28;20455;-69
2023/01/31 11:16:29;;;;;;;14.10;4.30;;;5.80;99.90;;;;;;5071905;28;21044;-69
2023/01/31 11:18:58;;;;;;;14.07;3.50;;;5.90;99.90;;;;;;5079803;28;20434;-70
2023/01/31 11:21:30;;;;;;;10.73;3.90;;;5.90;99.90;;;;;;5079998;28;20450;-71
2023/01/31 11:24:03;;;;;;;14.43;3.73;;;5.90;99.90;;;;;;5079074;28;20437;-68
2023/01/31 11:26:33;;;;;;;14.80;4.30;;;5.90;99.90;;;;;;5077826;28;20500;-69
2023/01/31 11:29:02;;;;;;;12.57;4.10;;;5.90;99.90;;;;;;5081559;28;20541;-68
2023/01/31 11:31:31;;;;;;;10.00;4.00;;;5.90;99.90;;;;;;5079233;28;20500;-69
2023/01/31 11:34:01;;;;;;;15.27;4.83;;;5.90;99.90;;;;;;5078591;28;20481;-69
2023/01/31 11:36:33;;;;;;;8.83;3.90;;;6.00;99.90;;;;;;5069510;28;20821;-70
2023/01/31 11:39:00;;;;;;;10.07;3.87;;;5.90;99.90;;;;;;5059520;28;20458;-69
2023/01/31 11:41:31;;;;;;;10.23;3.73;;;5.80;99.90;;;;;;5057907;28;20459;-68
2023/01/31 11:44:08;;;;;;;14.33;4.67;;;5.80;99.90;;;;;;5058093;28;20988;-68
2023/01/31 11:46:46;;;;;;;28.40;5.63;;;5.80;99.90;;;;;;5057118;28;20439;-69
2023/01/31 11:49:20;;;;;;;20.73;5.00;;;5.80;99.90;;;;;;5059092;28;20439;-69
2023/01/31 11:51:49;;;;;;;12.23;5.00;;;5.80;99.90;;;;;;5057488;28;20912;-69
2023/01/31 11:54:20;;;;;;;20.07;4.93;;;5.80;99.90;;;;;;5058119;28;20466;-69
2023/01/31 11:56:48;;;;;;;12.77;6.10;;;5.90;99.90;;;;;;5058294;28;20530;-68
2023/01/31 11:59:20;;;;;;;16.07;5.20;;;5.80;99.90;;;;;;5058917;28;20455;-68
2023/01/31 12:01:49;;;;;;;10.83;5.03;;;5.80;99.90;;;;;;5057696;28;20455;-69
2023/01/31 12:04:20;;;;;;;14.37;6.03;;;5.90;99.90;;;;;;5058189;28;21007;-68
2023/01/31 12:07:00;;;;;;;12.07;5.50;;;5.90;99.90;;;;;;5058180;28;20451;-69
2023/01/31 12:09:31;;;;;;;8.77;4.70;;;5.90;99.90;;;;;;5055790;28;20455;-70
2023/01/31 12:12:01;;;;;;;14.00;4.30;;;6.00;99.90;;;;;;5055826;28;20509;-69
2023/01/31 12:14:39;;;;;;;10.00;4.17;;;6.00;99.90;;;;;;5056548;28;20459;-69
2023/01/31 12:17:07;;;;;;;21.37;5.67;;;6.00;99.90;;;;;;5055859;28;20538;-70
2023/01/31 12:19:47;;;;;;;19.17;4.90;;;5.90;99.90;;;;;;5055829;28;20455;-69
2023/01/31 12:22:21;;;;;;;11.23;5.17;;;5.80;99.90;;;;;;5058463;28;20461;-70
2023/01/31 12:24:55;;;;;;;12.30;5.10;;;5.70;99.90;;;;;;5059903;28;20494;-69
2023/01/31 12:27:32;;;;;;;16.27;5.67;;;5.60;99.90;;;;;;5058738;28;20574;-69
2023/01/31 12:30:26;;;;;;;16.90;5.80;;;5.50;99.90;;;;;;5059923;28;20443;-70
2023/01/31 12:33:09;;;;;;;18.43;5.10;;;5.50;99.90;;;;;;5057591;28;20439;-69
2023/01/31 12:35:45;;;;;;;10.03;4.33;;;5.40;99.90;;;;;;5057822;28;20506;-69
2023/01/31 12:38:28;;;;;;;10.87;4.53;;;5.30;99.90;;;;;;5059387;28;20499;-69
2023/01/31 12:41:04;;;;;;;13.83;4.90;;;5.20;99.90;;;;;;5057476;28;20443;-69
2023/01/31 12:43:49;;;;;;;13.37;5.80;;;5.20;99.90;;;;;;5057123;28;20815;-68
2023/01/31 12:46:24;;;;;;;14.07;5.57;;;5.20;99.90;;;;;;5057777;28;20545;-69
2023/01/31 12:49:28;;;;;;;15.53;5.93;;;5.10;99.90;;;;;;5056638;28;20447;-69
2023/01/31 12:52:03;;;;;;;20.77;5.87;;;5.00;99.90;;;;;;5055434;28;20756;-69
2023/01/31 12:54:51;;;;;;;13.80;5.90;;;5.00;99.90;;;;;;5055765;28;20511;-69
2023/01/31 12:57:30;;;;;;;15.17;6.23;;;4.90;99.90;;;;;;5075440;28;20441;-69
2023/01/31 13:00:11;;;;;;;11.73;5.73;;;4.90;99.90;;;;;;5077295;28;20843;-70
2023/01/31 13:02:44;;;;;;;11.80;6.03;;;4.80;99.90;;;;;;5075084;28;20882;-68
2023/01/31 13:05:24;;;;;;;12.77;6.33;;;4.80;99.90;;;;;;5075129;28;20876;-69
2023/01/31 13:07:56;;;;;;;16.37;6.87;;;4.80;99.90;;;;;;5075869;28;20824;-68
2023/01/31 13:10:39;;;;;;;12.57;6.63;;;4.80;99.90;;;;;;5074731;28;20438;-69
2023/01/31 13:13:12;;;;;;;19.30;7.10;;;4.80;99.90;;;;;;5075221;28;20508;-69
2023/01/31 13:15:44;;;;;;;14.63;6.70;;;4.80;99.90;;;;;;5075754;28;20438;-69